Time;durP1;ratioP1;P1;durP2;ratioP2;P2;SDS_P1;SDS_P2;PMS_P1;PMS_P2;Temp;Humidity;BMP_temperature;BMP_pressure;BME280_temperature;BME280_humidity;BME280_pressure;Samples;Min_cycle;Max_cycle;Signal;HPM_P1;HPM_P2
2023/08/28 00:00:27;;;;;;;4.95;1.88;;;13.50;99.90;;;;;;5022754;28;20040;-71
2023/08/28 00:02:53;;;;;;;3.75;1.50;;;;;;;;;;5025570;28;20068;-71
2023/08/28 00:05:19;;;;;;;6.38;1.40;;;;;;;;;;5006370;28;20439;-71
2023/08/28 00:07:44;;;;;;;2.70;1.63;;;13.60;99.90;;;;;;4992238;28;20081;-71
2023/08/28 00:10:10;;;;;;;3.22;2.05;;;;;;;;;;4997373;28;20034;-71
2023/08/28 00:12:40;;;;;;;4.80;1.40;;;13.50;99.90;;;;;;4996408;28;20446;-71
2023/08/28 00:15:07;;;;;;;3.55;1.58;;;13.30;99.90;;;;;;5002862;28;20054;-71
2023/08/28 00:17:33;;;;;;;3.05;1.50;;;;;;;;;;4998840;28;20436;-71
2023/08/28 00:19:59;;;;;;;4.65;1.52;;;;;;;;;;4998789;28;20042;-71
2023/08/28 00:22:25;;;;;;;3.83;1.58;;;;;;;;;;5005930;28;20101;-71
2023/08/28 00:24:51;;;;;;;4.97;1.58;;;13.40;99.90;;;;;;5006926;28;20447;-71
2023/08/28 00:27:17;;;;;;;5.88;2.30;;;;;;;;;;5000105;28;20038;-71
2023/08/28 00:29:42;;;;;;;3.08;1.77;;;13.30;99.90;;;;;;4990479;28;20030;-71
2023/08/28 00:32:08;;;;;;;4.28;1.45;;;;;;;;;;5001577;28;20046;-71
2023/08/28 00:34:34;;;;;;;3.75;1.20;;;;;;;;;;5000327;28;20046;-71
2023/08/28 00:37:00;;;;;;;5.82;2.10;;;;;;;;;;5010363;28;20084;-71
2023/08/28 00:39:27;;;;;;;3.72;1.67;;;;;;;;;;5001163;28;20404;-71
2023/08/28 00:41:53;;;;;;;3.30;1.77;;;;;;;;;;5000373;28;20049;-71
2023/08/28 00:44:19;;;;;;;3.03;1.73;;;;;;;;;;5003305;28;20551;-71
2023/08/28 00:46:45;;;;;;;4.22;2.03;;;13.30;99.90;;;;;;5000598;28;20042;-71
2023/08/28 00:49:11;;;;;;;4.55;1.45;;;13.20;99.90;;;;;;4995192;28;20080;-71
2023/08/28 00:51:38;;;;;;;5.43;2.08;;;13.30;99.90;;;;;;4998469;28;20050;-71
2023/08/28 00:54:04;;;;;;;4.80;1.90;;;;;;;;;;5005437;28;20774;-71
2023/08/28 00:56:30;;;;;;;3.45;1.60;;;;;;;;;;5004351;28;20046;-71
2023/08/28 00:58:56;;;;;;;4.40;1.75;;;13.30;99.90;;;;;;5003093;28;20045;-71
2023/08/28 01:01:21;;;;;;;8.35;2.05;;;13.20;99.90;;;;;;5000189;28;20045;-71
2023/08/28 01:03:47;;;;;;;4.68;1.33;;;;;;;;;;5009673;28;20061;-71
2023/08/28 01:06:16;;;;;;;2.95;1.40;;;13.10;99.90;;;;;;5006758;28;20527;-71
2023/08/28 01:08:57;;;;;;;3.25;1.60;;;13.10;99.90;;;;;;5002369;28;20107;-71
2023/08/28 01:12:03;;;;;;;1.63;1.13;;;12.80;99.90;;;;;;5001223;28;20055;-71
2023/08/28 01:14:29;;;;;;;3.27;1.20;;;12.80;99.90;;;;;;4999011;28;20177;-71
2023/08/28 01:17:03;;;;;;;2.60;1.58;;;13.00;99.90;;;;;;5003281;28;20301;-71
2023/08/28 01:19:33;;;;;;;2.72;1.30;;;12.80;99.90;;;;;;5003690;28;20042;-71
2023/08/28 01:22:14;;;;;;;3.65;1.65;;;12.80;99.90;;;;;;4995175;28;20046;-71
2023/08/28 01:24:45;;;;;;;4.03;1.65;;;12.80;99.90;;;;;;5001146;28;20121;-71
2023/08/28 01:27:12;;;;;;;3.58;1.35;;;12.80;99.90;;;;;;4997347;28;20523;-71
2023/08/28 01:29:38;;;;;;;3.97;1.95;;;12.80;99.90;;;;;;4996979;28;20043;-71
2023/08/28 01:32:04;;;;;;;1.77;1.52;;;;;;;;;;4997081;28;20568;-71
2023/08/28 01:34:30;;;;;;;2.80;1.70;;;;;;;;;;5004257;28;20052;-71
2023/08/28 01:37:00;;;;;;;3.22;0.90;;;12.60;99.90;;;;;;5002340;28;20058;-71
2023/08/28 01:39:31;;;;;;;1.77;0.90;;;12.50;99.90;;;;;;4997065;28;20538;-70
2023/08/28 01:41:58;;;;;;;1.38;1.25;;;12.40;99.90;;;;;;4989139;28;20041;-71
2023/08/28 01:44:27;;;;;;;3.13;1.60;;;12.50;99.90;;;;;;4998420;28;20038;-71
2023/08/28 01:46:52;;;;;;;3.72;1.33;;;12.40;99.90;;;;;;5000530;28;20050;-71
2023/08/28 01:49:18;;;;;;;2.42;1.83;;;12.50;99.90;;;;;;5004156;28;20081;-71
2023/08/28 01:51:44;;;;;;;2.92;1.92;;;12.60;99.90;;;;;;4990398;28;20131;-71
2023/08/28 01:54:10;;;;;;;6.05;2.28;;;;;;;;;;5004694;28;20042;-71
2023/08/28 01:56:36;;;;;;;7.88;2.50;;;;;;;;;;5002241;28;20046;-71
2023/08/28 01:59:02;;;;;;;3.85;2.42;;;;;;;;;;5001907;28;20038;-71
2023/08/28 02:01:28;;;;;;;3.15;2.17;;;;;;;;;;5000887;28;20694;-71
2023/08/28 02:03:54;;;;;;;4.07;2.15;;;13.10;99.90;;;;;;5002669;28;20042;-71
2023/08/28 02:06:20;;;;;;;4.13;2.63;;;;;;;;;;5027110;28;20057;-71
2023/08/28 02:08:46;;;;;;;8.23;2.78;;;;;;;;;;5025133;28;20415;-71
2023/08/28 02:11:12;;;;;;;6.13;2.38;;;13.30;99.90;;;;;;5004157;28;20049;-71
2023/08/28 02:13:38;;;;;;;4.53;2.63;;;13.30;99.90;;;;;;5021704;28;20044;-71
2023/08/28 02:16:04;;;;;;;4.93;2.55;;;13.30;99.90;;;;;;5004324;28;20626;-71
2023/08/28 02:18:30;;;;;;;7.43;2.72;;;13.20;99.90;;;;;;5006023;28;20048;-71
2023/08/28 02:20:56;;;;;;;3.38;2.33;;;;;;;;;;5019523;28;20045;-71
2023/08/28 02:23:22;;;;;;;5.82;3.10;;;;;;;;;;5024515;28;20410;-71
2023/08/28 02:25:49;;;;;;;3.45;2.45;;;13.10;99.90;;;;;;5001321;28;20045;-71
2023/08/28 02:28:18;;;;;;;5.68;2.42;;;12.90;99.90;;;;;;5026032;28;20034;-71
2023/08/28 02:30:44;;;;;;;3.03;2.35;;;;;;;;;;5020883;28;20475;-71
2023/08/28 02:33:09;;;;;;;8.48;2.17;;;12.70;99.90;;;;;;5022297;28;20120;-71
2023/08/28 02:35:35;;;;;;;6.05;2.55;;;;;;;;;;5025764;28;20478;-71
2023/08/28 02:38:01;;;;;;;5.22;2.70;;;;;;;;;;5007664;28;20437;-71
2023/08/28 02:40:27;;;;;;;7.90;3.17;;;12.80;99.90;;;;;;5025940;28;20045;-71
2023/08/28 02:42:55;;;;;;;8.60;3.17;;;;;;;;;;5008528;28;20049;-71
2023/08/28 02:45:21;;;;;;;4.53;3.05;;;;;;;;;;5022531;28;20041;-71
2023/08/28 02:47:47;;;;;;;12.50;3.28;;;;;;;;;;5002678;28;20051;-71
2023/08/28 02:50:13;;;;;;;3.47;2.50;;;;;;;;;;4999256;28;20048;-71
2023/08/28 02:52:38;;;;;;;4.78;2.47;;;12.60;99.90;;;;;;5009942;28;20053;-71
2023/08/28 02:55:04;;;;;;;4.80;2.63;;;12.70;99.90;;;;;;5021896;28;20045;-71
2023/08/28 02:57:30;;;;;;;3.88;2.72;;;;;;;;;;5004767;28;20045;-71
2023/08/28 02:59:56;;;;;;;3.70;2.50;;;;;;;;;;5021509;28;20799;-71
2023/08/28 03:02:22;;;;;;;3.90;2.20;;;;;;;;;;4996714;28;20137;-71
2023/08/28 03:04:48;;;;;;;2.72;2.30;;;;;;;;;;5027597;28;20111;-71
2023/08/28 03:07:14;;;;;;;5.95;2.38;;;;;;;;;;5009982;28;20041;-71
2023/08/28 03:09:40;;;;;;;4.00;2.50;;;12.60;99.90;;;;;;5013230;28;20034;-71
2023/08/28 03:12:06;;;;;;;4.72;2.90;;;;;;;;;;5020551;28;20049;-71
2023/08/28 03:14:32;;;;;;;6.03;2.88;;;;;;;;;;4992038;28;20069;-71
2023/08/28 03:16:57;;;;;;;5.65;3.20;;;12.50;99.90;;;;;;5007558;28;20496;-71
2023/08/28 03:19:23;;;;;;;6.78;3.20;;;;;;;;;;5021907;28;20045;-71
2023/08/28 03:21:49;;;;;;;5.85;2.78;;;12.20;99.90;;;;;;5026010;28;20823;-71
2023/08/28 03:24:15;;;;;;;2.42;2.10;;;;;;;;;;5003140;28;20049;-71
2023/08/28 03:26:42;;;;;;;3.55;2.85;;;12.30;99.90;;;;;;5009652;28;20046;-71
2023/08/28 03:29:08;;;;;;;6.60;3.25;;;;;;;;;;5009254;28;20140;-71
2023/08/28 03:31:33;;;;;;;7.15;2.53;;;;;;;;;;5005716;28;20148;-71
2023/08/28 03:34:00;;;;;;;4.82;2.88;;;12.30;99.90;;;;;;4994099;28;20053;-71
2023/08/28 03:36:25;;;;;;;7.60;3.13;;;12.30;99.90;;;;;;5025139;28;20038;-71
2023/08/28 03:38:51;;;;;;;7.15;2.78;;;12.20;99.90;;;;;;5010353;28;20046;-71
2023/08/28 03:41:17;;;;;;;3.53;2.42;;;;;;;;;;5008223;28;20073;-71
2023/08/28 03:43:43;;;;;;;2.80;2.53;;;;;;;;;;5023510;28;21371;-71
2023/08/28 03:46:09;;;;;;;4.65;2.40;;;;;;;;;;5002616;28;20088;-71
2023/08/28 03:48:34;;;;;;;5.32;2.60;;;12.40;99.90;;;;;;4985868;28;20045;-71
2023/08/28 03:51:00;;;;;;;3.05;2.47;;;;;;;;;;5003340;28;20515;-71
2023/08/28 03:53:26;;;;;;;2.85;2.45;;;12.30;99.90;;;;;;5021664;28;20045;-71
2023/08/28 03:55:53;;;;;;;6.95;2.00;;;;;;;;;;5010072;28;20053;-71
2023/08/28 03:58:21;;;;;;;4.07;1.80;;;;;;;;;;5021267;28;20056;-71
2023/08/28 04:00:47;;;;;;;1.55;1.10;;;;;;;;;;5006234;28;20484;-71
2023/08/28 04:03:13;;;;;;;2.47;1.58;;;;;;;;;;5021165;28;20093;-71
2023/08/28 04:05:39;;;;;;;3.67;1.67;;;;;;;;;;4998468;28;20061;-71
2023/08/28 04:08:05;;;;;;;3.53;1.10;;;;;;;;;;5006036;28;20041;-71
2023/08/28 04:10:31;;;;;;;1.25;0.80;;;11.80;99.90;;;;;;5004681;28;20096;-71
2023/08/28 04:12:57;;;;;;;1.58;0.80;;;12.00;99.90;;;;;;5007033;28;20140;-71
2023/08/28 04:15:23;;;;;;;0.60;0.60;;;;;;;;;;5007115;28;20041;-71
2023/08/28 04:17:49;;;;;;;1.00;0.80;;;;;;;;;;5006140;28;20045;-71
2023/08/28 04:20:15;;;;;;;1.40;0.75;;;11.80;99.90;;;;;;5028642;28;20037;-71
2023/08/28 04:22:44;;;;;;;2.45;0.88;;;;;;;;;;5024407;28;20091;-71
2023/08/28 04:25:11;;;;;;;132.43;8.25;;;;;;;;;;5008635;28;20072;-71
2023/08/28 04:27:38;;;;;;;3.20;1.63;;;11.60;99.90;;;;;;5025176;28;20052;-71
2023/08/28 04:30:04;;;;;;;2.03;1.50;;;;;;;;;;5011530;28;20037;-71
2023/08/28 04:32:30;;;;;;;2.08;1.88;;;;;;;;;;5008545;28;20516;-71
2023/08/28 04:34:56;;;;;;;2.88;1.88;;;11.80;99.90;;;;;;5023661;28;20076;-71
2023/08/28 04:37:24;;;;;;;2.08;1.75;;;11.80;99.90;;;;;;5007284;28;20488;-71
2023/08/28 04:39:49;;;;;;;2.20;1.92;;;;;;;;;;5005069;28;20049;-71
2023/08/28 04:42:15;;;;;;;3.90;0.90;;;;;;;;;;5021121;28;20302;-71
2023/08/28 04:44:41;;;;;;;106.82;4.60;;;;;;;;;;5000956;28;20128;-71
2023/08/28 04:47:07;;;;;;;136.70;4.60;;;11.60;99.90;;;;;;5026556;28;20041;-71
2023/08/28 04:49:33;;;;;;;1.65;1.42;;;;;;;;;;5021336;28;20184;-71
2023/08/28 04:51:59;;;;;;;6.53;1.92;;;;;;;;;;5001978;28;20061;-71
2023/08/28 04:54:25;;;;;;;2.97;1.35;;;;;;;;;;5005981;28;20052;-71
2023/08/28 04:56:51;;;;;;;3.90;2.70;;;;;;;;;;5006801;28;20099;-71
2023/08/28 04:59:17;;;;;;;3.25;2.30;;;;;;;;;;5003384;28;20045;-71
2023/08/28 05:01:43;;;;;;;2.63;2.25;;;;;;;;;;5026673;28;20452;-71
2023/08/28 05:04:08;;;;;;;5.82;2.33;;;11.70;99.90;;;;;;4988023;28;20049;-71
2023/08/28 05:06:34;;;;;;;2.40;2.10;;;;;;;;;;5020210;28;20046;-71
2023/08/28 05:09:00;;;;;;;3.53;1.95;;;;;;;;;;5004053;28;20084;-71
2023/08/28 05:11:26;;;;;;;5.22;2.03;;;11.60;99.90;;;;;;5005736;28;20048;-71
2023/08/28 05:13:52;;;;;;;6.13;2.25;;;11.80;99.90;;;;;;5010743;28;20044;-71
2023/08/28 05:16:18;;;;;;;2.28;1.63;;;;;;;;;;5023733;28;20033;-71
2023/08/28 05:18:44;;;;;;;2.35;1.55;;;;;;;;;;5008083;28;20153;-71
2023/08/28 05:21:10;;;;;;;2.55;1.83;;;;;;;;;;5006585;28;20132;-71
2023/08/28 05:23:36;;;;;;;2.03;1.60;;;;;;;;;;5011529;28;20045;-71
2023/08/28 05:26:02;;;;;;;2.58;1.92;;;11.60;99.90;;;;;;4988069;28;20041;-71
2023/08/28 05:28:31;;;;;;;2.72;2.15;;;;;;;;;;5027882;28;20033;-71
2023/08/28 05:30:57;;;;;;;2.33;1.80;;;11.50;99.90;;;;;;5024842;28;20140;-71
2023/08/28 05:33:23;;;;;;;5.50;2.30;;;11.60;99.90;;;;;;5021193;28;20037;-71
2023/08/28 05:35:50;;;;;;;4.80;2.10;;;;;;;;;;5004375;28;20068;-71
2023/08/28 05:38:16;;;;;;;3.47;2.10;;;;;;;;;;5004163;28;20053;-71
2023/08/28 05:40:42;;;;;;;2.83;2.13;;;;;;;;;;5027418;28;20087;-71
2023/08/28 05:43:07;;;;;;;2.38;2.08;;;11.80;99.90;;;;;;5005378;28;20475;-71
2023/08/28 05:45:33;;;;;;;2.05;1.73;;;12.00;99.90;;;;;;5028700;28;20034;-71
2023/08/28 05:47:59;;;;;;;2.58;2.17;;;;;;;;;;5023940;28;20487;-70
2023/08/28 05:50:25;;;;;;;4.78;2.30;;;;;;;;;;5009583;28;20045;-71
2023/08/28 05:52:51;;;;;;;4.28;2.30;;;;;;;;;;5006702;28;20103;-71
2023/08/28 05:55:17;;;;;;;3.05;2.75;;;;;;;;;;5009340;28;20038;-70
2023/08/28 05:57:43;;;;;;;4.90;3.53;;;12.70;99.90;;;;;;5022880;28;20049;-71
2023/08/28 06:00:09;;;;;;;5.22;3.75;;;12.90;99.90;;;;;;5003785;28;20068;-71
2023/08/28 06:02:35;;;;;;;3.97;3.33;;;;;;;;;;5022605;28;20503;-71
2023/08/28 06:05:01;;;;;;;6.82;3.83;;;;;;;;;;5007531;28;20049;-71
2023/08/28 06:07:29;;;;;;;4.72;3.88;;;;;;;;;;5003619;28;20696;-71
2023/08/28 06:09:55;;;;;;;5.80;4.25;;;;;;;;;;4998917;28;20056;-76
2023/08/28 06:12:21;;;;;;;5.95;3.67;;;;;;;;;;4997948;28;20049;-67
2023/08/28 06:14:48;;;;;;;9.73;3.97;;;;;;;;;;5018829;28;20128;-68
2023/08/28 06:17:14;;;;;;;10.57;3.42;;;;;;;;;;5000886;28;20049;-68
2023/08/28 06:19:40;;;;;;;5.22;3.45;;;;;;;;;;5022640;28;20542;-67
2023/08/28 06:22:06;;;;;;;4.28;2.95;;;;;;;;;;5019488;28;20053;-67
2023/08/28 06:24:32;;;;;;;10.38;3.10;;;;;;;;;;5011640;28;20046;-67
2023/08/28 06:26:58;;;;;;;5.70;2.50;;;;;;;;;;5024403;28;20133;-67
2023/08/28 06:29:24;;;;;;;2.88;2.00;;;15.30;99.90;;;;;;5002010;28;20120;-67
2023/08/28 06:31:50;;;;;;;4.25;2.22;;;;;;;;;;5004742;28;20041;-68
2023/08/28 06:34:16;;;;;;;4.95;2.30;;;;;;;;;;5001198;28;20623;-67
2023/08/28 06:36:42;;;;;;;4.57;2.28;;;;;;;;;;5021202;28;20128;-67
2023/08/28 06:39:08;;;;;;;5.82;2.33;;;16.20;99.90;;;;;;5020754;28;20403;-69
2023/08/28 06:41:34;;;;;;;2.95;1.83;;;16.30;99.90;;;;;;5009195;28;20038;-69
2023/08/28 06:44:00;;;;;;;3.55;2.10;;;16.60;99.90;;;;;;5020976;28;20824;-67
2023/08/28 06:46:26;;;;;;;2.55;2.00;;;;;;;;;;5003765;28;20057;-68
2023/08/28 06:48:52;;;;;;;4.22;1.90;;;16.80;99.90;;;;;;4996536;28;20564;-67
2023/08/28 06:51:19;;;;;;;4.38;2.53;;;17.00;99.90;;;;;;5004470;28;20042;-68
2023/08/28 06:53:45;;;;;;;4.70;1.58;;;17.20;99.90;;;;;;5019533;28;20439;-68
2023/08/28 06:56:11;;;;;;;5.43;1.85;;;17.20;99.90;;;;;;5025224;28;20046;-67
2023/08/28 06:58:37;;;;;;;7.03;1.52;;;17.10;99.90;;;;;;5003478;28;20042;-68
2023/08/28 07:01:02;;;;;;;3.03;1.27;;;17.20;99.90;;;;;;5023592;28;20136;-69
2023/08/28 07:03:34;;;;;;;6.05;1.17;;;17.10;99.90;;;;;;5001135;28;20120;-67
2023/08/28 07:05:59;;;;;;;5.30;1.67;;;17.30;99.90;;;;;;5016049;28;20045;-67
2023/08/28 07:08:25;;;;;;;5.50;1.52;;;17.60;99.90;;;;;;5018787;28;20053;-66
2023/08/28 07:10:50;;;;;;;3.33;1.20;;;17.30;99.90;;;;;;5003158;28;20052;-65
2023/08/28 07:13:16;;;;;;;5.93;1.27;;;17.50;99.90;;;;;;5001566;28;20045;-66
2023/08/28 07:15:42;;;;;;;4.60;1.00;;;17.30;99.90;;;;;;5022713;28;20119;-69
2023/08/28 07:18:08;;;;;;;5.72;1.23;;;17.20;99.90;;;;;;5018388;28;20123;-66
2023/08/28 07:20:34;;;;;;;3.97;1.38;;;17.20;99.90;;;;;;5000691;28;20056;-71
2023/08/28 07:23:00;;;;;;;5.32;1.20;;;17.30;99.90;;;;;;5016466;28;20044;-67
2023/08/28 07:25:27;;;;;;;2.80;1.27;;;17.30;99.90;;;;;;5015214;28;20045;-67
2023/08/28 07:27:54;;;;;;;3.47;1.60;;;;;;;;;;5019663;28;20463;-67
2023/08/28 07:30:20;;;;;;;6.30;1.45;;;;;;;;;;5008030;28;20758;-68
2023/08/28 07:32:45;;;;;;;3.35;1.40;;;17.00;99.90;;;;;;5021769;28;20061;-68
2023/08/28 07:35:11;;;;;;;1.95;1.02;;;;;;;;;;5022705;28;20049;-67
2023/08/28 07:37:37;;;;;;;3.33;1.50;;;;;;;;;;5018684;28;20046;-70
2023/08/28 07:40:05;;;;;;;5.57;1.85;;;17.00;99.90;;;;;;5021669;28;20802;-67
2023/08/28 07:42:31;;;;;;;7.28;1.83;;;17.00;99.90;;;;;;5006374;28;20049;-68
2023/08/28 07:44:57;;;;;;;3.67;1.80;;;;;;;;;;4996337;28;20041;-68
2023/08/28 07:47:23;;;;;;;3.22;1.80;;;;;;;;;;5002614;28;20503;-68
2023/08/28 07:49:49;;;;;;;3.80;1.23;;;17.00;99.90;;;;;;5005889;28;20042;-69
2023/08/28 07:52:15;;;;;;;3.47;1.40;;;;;;;;;;5025862;28;20045;-67
2023/08/28 07:54:40;;;;;;;4.50;1.67;;;17.20;99.90;;;;;;5024982;28;20045;-68
2023/08/28 07:57:06;;;;;;;3.58;1.55;;;17.10;99.90;;;;;;5004857;28;20061;-67
2023/08/28 07:59:32;;;;;;;4.10;1.55;;;;;;;;;;5023195;28;20045;-68
2023/08/28 08:01:58;;;;;;;3.88;1.30;;;;;;;;;;5004646;28;20049;-68
2023/08/28 08:04:27;;;;;;;5.47;1.58;;;17.10;99.90;;;;;;5025642;28;20392;-69
2023/08/28 08:06:53;;;;;;;3.58;1.30;;;;;;;;;;5006348;28;20049;-69
2023/08/28 08:09:19;;;;;;;7.72;1.70;;;;;;;;;;5018708;28;20044;-70
2023/08/28 08:11:45;;;;;;;6.68;1.98;;;;;;;;;;5009259;28;20049;-69
2023/08/28 08:14:11;;;;;;;2.67;1.55;;;17.30;99.90;;;;;;5021827;28;20484;-69
2023/08/28 08:16:37;;;;;;;4.90;1.17;;;17.20;99.90;;;;;;5024048;28;20037;-70
2023/08/28 08:19:03;;;;;;;4.10;1.02;;;;;;;;;;5021968;28;20045;-69
2023/08/28 08:21:29;;;;;;;4.47;1.20;;;;;;;;;;4996725;28;20045;-69
2023/08/28 08:23:55;;;;;;;3.15;1.10;;;17.30;99.90;;;;;;5018245;28;20123;-69
2023/08/28 08:26:21;;;;;;;4.13;1.05;;;;;;;;;;5002264;28;20547;-69
2023/08/28 08:28:47;;;;;;;2.95;1.05;;;;;;;;;;5003712;28;20049;-69
2023/08/28 08:31:13;;;;;;;3.15;1.00;;;;;;;;;;5009490;28;20041;-70
2023/08/28 08:33:39;;;;;;;2.67;0.90;;;;;;;;;;5004753;28;20045;-70
2023/08/28 08:36:06;;;;;;;3.80;0.68;;;17.90;99.90;;;;;;5006724;28;20049;-69
2023/08/28 08:38:32;;;;;;;2.95;0.82;;;18.20;99.90;;;;;;5026395;28;20582;-69
2023/08/28 08:41:01;;;;;;;2.10;1.00;;;18.10;99.90;;;;;;5028020;28;20053;-71
2023/08/28 08:43:28;;;;;;;2.95;0.75;;;18.30;99.90;;;;;;5005659;28;20048;-68
2023/08/28 08:46:00;;;;;;;2.95;0.70;;;18.20;99.90;;;;;;5006552;28;20044;-69
2023/08/28 08:48:27;;;;;;;3.58;0.60;;;18.30;99.90;;;;;;5006948;28;20042;-68
2023/08/28 08:51:01;;;;;;;3.70;0.95;;;18.40;99.90;;;;;;5008319;28;20136;-69
2023/08/28 08:53:42;;;;;;;3.23;0.80;;;18.50;99.90;;;;;;5008846;28;20124;-70
2023/08/28 08:56:12;;;;;;;4.35;0.77;;;18.60;99.90;;;;;;5002879;28;20055;-70
2023/08/28 08:58:39;;;;;;;5.15;0.80;;;18.60;99.90;;;;;;5021303;28;20091;-70
2023/08/28 09:01:06;;;;;;;3.00;0.75;;;18.90;99.90;;;;;;5025407;28;20073;-69
2023/08/28 09:03:32;;;;;;;3.80;0.68;;;18.70;99.90;;;;;;5024147;28;20462;-68
2023/08/28 09:06:01;;;;;;;3.47;0.90;;;18.90;99.90;;;;;;5024324;28;20046;-68
2023/08/28 09:08:28;;;;;;;2.75;1.02;;;18.60;99.90;;;;;;5022574;28;20392;-68
2023/08/28 09:10:59;;;;;;;2.72;0.68;;;18.60;99.90;;;;;;5023903;28;20045;-69
2023/08/28 09:13:25;;;;;;;5.28;1.58;;;;;;;;;;5020272;28;20709;-70
2023/08/28 09:15:50;;;;;;;2.65;0.70;;;18.20;99.90;;;;;;5027186;28;20037;-69
2023/08/28 09:18:17;;;;;;;4.25;0.80;;;18.20;99.90;;;;;;4999674;28;20054;-68
2023/08/28 09:20:42;;;;;;;5.15;0.73;;;18.60;99.90;;;;;;5010711;28;20459;-69
2023/08/28 09:23:08;;;;;;;1.75;0.70;;;18.70;99.90;;;;;;5025854;28;20041;-69
2023/08/28 09:25:34;;;;;;;1.45;0.63;;;18.90;99.90;;;;;;5023551;28;20041;-68
2023/08/28 09:28:00;;;;;;;2.65;0.50;;;19.00;99.90;;;;;;5003995;28;20468;-68
2023/08/28 09:30:37;;;;;;;1.27;0.60;;;19.40;99.90;;;;;;5023423;28;20488;-68
2023/08/28 09:33:07;;;;;;;3.58;0.60;;;19.30;99.90;;;;;;5001437;28;20084;-69
2023/08/28 09:35:40;;;;;;;1.30;1.02;;;19.50;99.90;;;;;;5019727;28;20096;-70
2023/08/28 09:38:06;;;;;;;3.03;0.40;;;19.50;99.90;;;;;;5001097;28;20067;-68
2023/08/28 09:40:33;;;;;;;1.83;0.43;;;19.60;99.90;;;;;;5023038;28;20129;-67
2023/08/28 09:43:00;;;;;;;2.28;0.57;;;19.60;99.90;;;;;;5001359;28;20052;-68
2023/08/28 09:45:32;;;;;;;2.30;0.47;;;19.70;99.90;;;;;;5023658;28;20029;-68
2023/08/28 09:47:58;;;;;;;2.45;0.60;;;19.50;99.90;;;;;;5023422;28;20117;-68
2023/08/28 09:50:27;;;;;;;2.10;0.50;;;19.40;99.90;;;;;;5018580;28;20488;-71
2023/08/28 09:52:53;;;;;;;3.28;1.05;;;19.30;99.90;;;;;;5154263;23;20061;-69
2023/08/28 09:55:19;;;;;;;2.03;0.60;;;19.20;99.90;;;;;;5006745;28;20049;-68
2023/08/28 09:57:45;;;;;;;2.78;0.60;;;19.30;99.90;;;;;;5014049;28;20072;-70
2023/08/28 10:00:12;;;;;;;1.88;0.40;;;19.50;99.90;;;;;;5008364;28;20117;-69
2023/08/28 10:02:39;;;;;;;2.38;0.60;;;19.40;99.90;;;;;;5005026;28;20042;-70
2023/08/28 10:05:10;;;;;;;0.82;0.40;;;19.80;99.90;;;;;;4996059;28;20181;-69
2023/08/28 10:07:39;;;;;;;1.00;0.40;;;19.90;99.90;;;;;;5007188;28;20381;-69
2023/08/28 10:10:06;;;;;;;0.80;0.30;;;19.80;99.90;;;;;;4989391;28;20076;-69
2023/08/28 10:12:34;;;;;;;1.05;0.40;;;20.10;99.90;;;;;;4988478;28;20054;-68
2023/08/28 10:15:03;;;;;;;2.55;0.43;;;20.30;99.90;;;;;;4992609;28;20055;-70
2023/08/28 10:17:32;;;;;;;0.80;0.30;;;20.30;99.90;;;;;;5007417;28;20404;-71
2023/08/28 10:20:00;;;;;;;1.70;0.40;;;20.50;99.90;;;;;;4988627;28;20050;-71
2023/08/28 10:22:27;;;;;;;1.45;0.30;;;20.50;99.90;;;;;;4991199;28;20508;-70
2023/08/28 10:24:56;;;;;;;2.10;0.40;;;21.40;99.90;;;;;;4993282;28;20054;-69
2023/08/28 10:27:22;;;;;;;4.47;0.57;;;21.00;99.90;;;;;;4990793;28;20137;-69
2023/08/28 10:29:48;;;;;;;2.80;1.25;;;20.80;99.90;;;;;;5013250;28;20444;-69
2023/08/28 10:32:14;;;;;;;1.58;0.60;;;20.80;99.90;;;;;;4993040;28;20046;-69
2023/08/28 10:34:42;;;;;;;1.80;0.60;;;21.00;99.90;;;;;;5013112;28;20133;-68
2023/08/28 10:37:09;;;;;;;1.17;0.55;;;20.80;99.90;;;;;;5008582;28;20085;-69
2023/08/28 10:39:42;;;;;;;1.83;0.68;;;22.60;99.90;;;;;;4993972;28;20049;-68
2023/08/28 10:42:18;;;;;;;2.63;0.63;;;20.80;99.90;;;;;;5010971;28;20037;-71
2023/08/28 10:44:45;;;;;;;1.10;0.40;;;20.70;99.90;;;;;;5014942;28;20055;-70
2023/08/28 10:47:16;;;;;;;1.52;0.70;;;20.60;99.90;;;;;;4984875;28;20057;-70
2023/08/28 10:49:41;;;;;;;1.67;0.30;;;21.00;99.90;;;;;;5006724;28;20034;-69
2023/08/28 10:52:07;;;;;;;1.23;0.50;;;20.70;99.90;;;;;;5008397;28;20030;-70
2023/08/28 10:54:37;;;;;;;1.20;0.55;;;20.90;99.90;;;;;;4989280;28;20177;-69
2023/08/28 10:57:06;;;;;;;1.02;0.40;;;22.30;99.90;;;;;;4993690;28;20049;-69
2023/08/28 10:59:42;;;;;;;1.08;0.30;;;21.00;99.90;;;;;;4996990;28;20042;-69
2023/08/28 11:02:09;;;;;;;0.85;0.38;;;20.50;99.90;;;;;;4981241;28;20408;-69
2023/08/28 11:04:37;;;;;;;4.60;0.47;;;20.50;99.90;;;;;;4994127;28;20054;-68
2023/08/28 11:07:03;;;;;;;2.90;0.60;;;20.60;99.90;;;;;;4981391;28;20042;-70
2023/08/28 11:09:29;;;;;;;3.05;0.50;;;20.50;99.90;;;;;;4982484;28;20445;-68
2023/08/28 11:12:15;;;;;;;0.77;0.40;;;20.30;99.90;;;;;;4992878;28;20084;-71
2023/08/28 11:14:55;;;;;;;2.80;0.40;;;20.10;99.90;;;;;;4979132;28;20061;-71
2023/08/28 11:17:22;;;;;;;1.52;0.47;;;20.50;99.90;;;;;;4984733;28;20042;-71
2023/08/28 11:19:54;;;;;;;2.05;0.40;;;20.10;99.90;;;;;;4997027;28;20038;-71
2023/08/28 11:22:29;;;;;;;3.20;0.50;;;20.20;99.90;;;;;;4993063;28;20053;-71
2023/08/28 11:24:54;;;;;;;;;;;20.70;99.90;;;;;;4981389;28;20052;-70
2023/08/28 11:27:46;;;;;;;2.30;0.32;;;19.90;99.90;;;;;;4983759;28;20720;-72
2023/08/28 11:30:13;;;;;;;1.20;0.50;;;20.00;99.90;;;;;;4980223;28;20093;-68
2023/08/28 11:32:42;;;;;;;3.17;0.40;;;20.00;99.90;;;;;;5001578;28;20046;-70
2023/08/28 11:35:09;;;;;;;3.47;0.60;;;20.10;99.90;;;;;;4989761;28;20057;-75
2023/08/28 11:37:40;;;;;;;3.70;0.40;;;20.20;99.90;;;;;;4988654;28;20057;-74
2023/08/28 11:40:07;;;;;;;1.95;0.50;;;19.80;99.90;;;;;;4983783;28;20049;-74
2023/08/28 11:42:34;;;;;;;3.03;0.95;;;19.90;99.90;;;;;;4999653;28;20409;-74
2023/08/28 11:44:59;;;;;;;2.85;0.40;;;19.80;99.90;;;;;;4986180;28;20053;-76
2023/08/28 11:47:30;;;;;;;1.52;0.52;;;19.40;99.90;;;;;;4978955;28;20041;-75
2023/08/28 11:49:57;;;;;;;2.60;0.55;;;19.70;99.90;;;;;;4977608;28;20038;-72
2023/08/28 11:52:23;;;;;;;1.02;0.40;;;19.70;99.90;;;;;;5001110;28;20403;-70
2023/08/28 11:54:49;;;;;;;2.42;0.68;;;19.80;99.90;;;;;;5006888;28;20519;-72
2023/08/28 11:57:16;;;;;;;1.70;0.40;;;19.80;99.90;;;;;;5000599;28;20522;-72
2023/08/28 11:59:47;;;;;;;2.45;0.40;;;19.80;99.90;;;;;;4988216;28;20584;-73
2023/08/28 12:02:13;;;;;;;2.08;0.63;;;19.60;99.90;;;;;;5010245;28;20033;-73
2023/08/28 12:04:43;;;;;;;1.58;0.40;;;19.70;99.90;;;;;;4991205;28;20105;-72
2023/08/28 12:07:19;;;;;;;2.65;0.52;;;20.80;99.90;;;;;;5007368;28;20496;-71
2023/08/28 12:09:49;;;;;;;2.65;0.43;;;19.60;99.90;;;;;;5009117;28;20522;-71
2023/08/28 12:12:17;;;;;;;2.92;0.43;;;19.70;99.90;;;;;;5015879;28;20711;-71
2023/08/28 12:14:44;;;;;;;1.73;0.75;;;19.80;99.90;;;;;;5011408;28;20054;-70
2023/08/28 12:17:23;;;;;;;1.55;0.57;;;20.70;99.90;;;;;;4993892;28;20042;-69
2023/08/28 12:19:50;;;;;;;2.10;0.60;;;20.00;99.90;;;;;;5006432;28;20100;-70
2023/08/28 12:22:17;;;;;;;2.90;0.93;;;19.80;99.90;;;;;;5000473;28;20095;-70
2023/08/28 12:24:44;;;;;;;3.25;0.60;;;19.90;99.90;;;;;;4982822;28;20050;-70
2023/08/28 12:27:14;;;;;;;2.53;0.50;;;19.90;99.90;;;;;;5011787;28;20041;-70
2023/08/28 12:29:43;;;;;;;1.10;0.60;;;20.00;99.90;;;;;;5000389;28;20576;-70
2023/08/28 12:32:16;;;;;;;2.17;0.52;;;20.10;99.90;;;;;;5003612;28;20500;-70
2023/08/28 12:34:42;;;;;;;1.00;0.40;;;20.00;99.90;;;;;;4993633;28;20082;-71
2023/08/28 12:37:11;;;;;;;4.88;0.50;;;20.10;99.90;;;;;;5005093;28;20471;-72
2023/08/28 12:39:44;;;;;;;1.95;0.63;;;20.30;99.90;;;;;;5012523;28;20079;-72
2023/08/28 12:42:12;;;;;;;3.17;0.40;;;21.90;99.90;;;;;;5007734;28;20092;-72
2023/08/28 12:44:38;;;;;;;3.88;0.63;;;20.40;99.90;;;;;;5008784;28;20575;-72
2023/08/28 12:47:04;;;;;;;4.10;0.52;;;21.70;99.90;;;;;;4986900;28;20052;-73
2023/08/28 12:49:32;;;;;;;5.15;0.90;;;20.40;99.90;;;;;;5000407;28;20037;-72
2023/08/28 12:52:02;;;;;;;1.83;0.47;;;20.00;99.90;;;;;;5003184;28;20042;-73
2023/08/28 12:54:27;;;;;;;6.00;0.70;;;22.50;99.90;;;;;;4989000;28;20078;-72
2023/08/28 12:56:53;;;;;;;1.65;0.60;;;20.50;99.90;;;;;;5011467;28;20053;-73
2023/08/28 12:59:22;;;;;;;2.15;0.50;;;20.00;99.90;;;;;;5014959;28;20444;-71
2023/08/28 13:01:47;;;;;;;1.50;0.40;;;21.60;99.90;;;;;;4996655;28;20041;-71
2023/08/28 13:04:13;;;;;;;2.17;0.45;;;20.10;99.90;;;;;;5004479;28;20065;-72
2023/08/28 13:06:38;;;;;;;1.00;0.30;;;20.30;99.90;;;;;;5003244;28;20496;-71
2023/08/28 13:09:05;;;;;;;1.63;0.30;;;20.00;99.90;;;;;;5013837;28;20076;-70
2023/08/28 13:11:31;;;;;;;1.35;0.65;;;20.20;99.90;;;;;;4999275;28;20046;-73
2023/08/28 13:13:58;;;;;;;1.40;0.40;;;19.80;99.90;;;;;;4988075;28;20095;-72
2023/08/28 13:16:24;;;;;;;1.42;0.40;;;20.10;99.90;;;;;;5005024;28;20080;-73
2023/08/28 13:18:49;;;;;;;1.63;0.57;;;20.00;99.90;;;;;;4985656;28;20133;-73
2023/08/28 13:21:15;;;;;;;3.15;0.40;;;19.70;99.90;;;;;;4998660;28;20514;-73
2023/08/28 13:23:43;;;;;;;3.78;1.55;;;20.10;99.90;;;;;;4993538;28;20411;-72